Time;durP1;ratioP1;P1;durP2;ratioP2;P2;SDS_P1;SDS_P2;PMS_P1;PMS_P2;Temp;Humidity;BMP_temperature;BMP_pressure;BME280_temperature;BME280_humidity;BME280_pressure;Samples;Min_cycle;Max_cycle;Signal;HPM_P1;HPM_P2
2023/04/07 00:02:11;;;;;;;;;;;10.10;89.70;;;9.52;72.84;100346.22;5092859;28;19924;-75
2023/04/07 00:04:38;;;;;;;;;;;10.20;89.50;;;9.54;72.90;100332.72;5092778;28;19928;-75
2023/04/07 00:07:06;;;;;;;;;;;10.20;89.70;;;9.54;72.80;100349.50;5092690;28;19934;-74
2023/04/07 00:09:33;;;;;;;;;;;10.20;89.70;;;9.55;72.74;100342.31;5092606;28;20031;-73
2023/04/07 00:12:01;;;;;;;;;;;10.20;89.50;;;9.55;72.66;100337.81;5092711;28;19951;-77
2023/04/07 00:14:28;;;;;;;;;;;10.20;89.50;;;9.57;72.57;100340.28;5092625;28;19928;-75
2023/04/07 00:16:55;;;;;;;;;;;10.20;89.50;;;9.55;72.87;100339.66;5092615;28;19934;-77
2023/04/07 00:19:22;;;;;;;;;;;10.20;89.60;;;9.57;73.28;100344.81;5091415;28;19928;-74
2023/04/07 00:21:49;;;;;;;;;;;10.20;90.20;;;9.56;73.21;100335.97;5092386;28;19928;-76
2023/04/07 00:24:18;;;;;;;;;;;10.20;90.00;;;9.56;73.12;100338.63;5092494;28;20010;-74
2023/04/07 00:26:45;;;;;;;;;;;10.20;90.00;;;9.56;73.81;100346.63;5092143;28;19932;-76
2023/04/07 00:29:12;;;;;;;;;;;10.20;90.70;;;9.52;74.19;100338.25;5092147;28;20012;-74
2023/04/07 00:31:39;;;;;;;;;;;10.20;90.60;;;9.53;73.72;100337.22;5091985;28;19928;-76
2023/04/07 00:34:06;;;;;;;;;;;10.20;90.20;;;9.53;73.64;100331.91;5054175;28;19935;-75
2023/04/07 00:36:33;;;;;;;;;;;10.20;90.40;;;9.54;73.61;100332.72;5053620;28;20067;-74
2023/04/07 00:39:00;;;;;;;;;;;10.20;90.50;;;9.53;74.85;100337.22;5053701;28;19964;-74
2023/04/07 00:41:28;;;;;;;;;;;10.20;91.40;;;9.51;74.66;100336.59;5053660;28;19935;-76
2023/04/07 00:43:55;;;;;;;;;;;10.10;91.10;;;9.51;74.19;100333.94;5053730;28;20043;-75
2023/04/07 00:46:23;;;;;;;;;;;10.20;91.00;;;9.50;74.47;100326.16;5053594;28;20749;-76
2023/04/07 00:48:50;;;;;;;;;;;10.10;91.00;;;9.49;74.45;100335.19;5053488;28;19950;-76
2023/04/07 00:51:18;;;;;;;;;;;10.20;90.90;;;9.50;74.36;100326.97;5071595;28;19928;-73
2023/04/07 00:53:45;;;;;;;;;;;10.10;90.80;;;9.50;74.14;100323.50;5053514;28;20022;-78
2023/04/07 00:56:12;;;;;;;;;;;10.10;90.80;;;9.50;75.14;100320.84;5053166;28;19925;-75
2023/04/07 00:58:40;;;;;;;;;;;10.10;92.00;;;9.48;75.68;100326.38;5053135;28;19928;-75
2023/04/07 01:01:12;;;;;;;;;;;10.10;92.20;;;9.45;75.56;100312.66;5053166;28;19998;-74
2023/04/07 01:03:44;;;;;;;;;;;10.10;91.60;;;9.46;75.14;100323.09;5053309;28;20039;-73
2023/04/07 01:06:14;;;;;;;;;;;10.10;91.60;;;9.47;75.11;100314.09;5053132;28;20393;-75
2023/04/07 01:08:50;;;;;;;;;;;10.10;91.40;;;9.46;75.22;100316.94;5053018;28;19924;-74
2023/04/07 01:11:23;;;;;;;;;;;10.10;91.40;;;9.47;74.86;100310.63;5053153;28;20319;-75
2023/04/07 01:13:53;;;;;;;;;;;10.10;91.10;;;9.47;75.19;100319.41;5053284;28;19935;-74
2023/04/07 01:16:31;;;;;;;;;;;10.10;91.30;;;9.49;74.96;100313.88;5052930;28;19997;-74
2023/04/07 01:19:04;;;;;;;;;;;10.20;91.20;;;9.48;75.42;100326.38;5052955;28;19928;-77
2023/04/07 01:21:33;;;;;;;;;;;10.20;91.40;;;9.47;75.92;100314.09;5052816;28;19964;-75
2023/04/07 01:24:18;;;;;;;;;;;10.30;92.50;;;9.46;76.28;100314.28;5052996;28;19935;-74
2023/04/07 01:26:47;;;;;;;;;;;10.10;92.40;;;9.43;76.66;100306.72;5052920;28;20028;-77
2023/04/07 01:29:36;;;;;;;;;;;10.10;92.50;;;9.44;76.20;100311.03;5070603;28;19982;-76
2023/04/07 01:32:06;;;;;;;;;;;10.10;92.20;;;9.47;76.46;100313.28;5052737;28;20002;-75
2023/04/07 01:34:34;;;;;;;;;;;10.10;92.60;;;9.47;76.30;100316.75;5052617;28;19939;-76
2023/04/07 01:37:03;;;;;;;;;;;10.10;92.30;;;9.47;76.17;100311.44;5069836;28;20312;-76
2023/04/07 01:39:31;;;;;;;;;;;10.10;92.60;;;9.47;76.45;100314.09;5052489;28;20421;-74
2023/04/07 01:42:01;;;;;;;;;;;10.10;92.40;;;9.47;77.16;100313.28;5070631;28;19931;-77
2023/04/07 01:44:28;;;;;;;;;;;10.10;93.40;;;9.47;76.49;100315.94;5052481;28;19974;-75
2023/04/07 01:46:57;;;;;;;;;;;10.10;92.50;;;9.47;76.75;100315.94;5052552;28;20018;-76
2023/04/07 01:49:25;;;;;;;;;;;10.10;92.80;;;9.49;76.58;100311.22;5070382;28;20393;-74
2023/04/07 01:51:53;;;;;;;;;;;10.10;92.80;;;9.48;76.48;100317.56;5052421;28;19936;-75
2023/04/07 01:54:21;;;;;;;;;;;10.10;92.60;;;9.48;76.10;100310.41;5053827;28;19928;-75
2023/04/07 01:56:48;;;;;;;;;;;10.10;92.20;;;9.51;75.77;100306.50;5071746;28;19928;-74
2023/04/07 01:59:16;;;;;;;;;;;10.10;92.00;;;9.53;75.60;100310.59;5072186;28;19924;-74
2023/04/07 02:01:43;;;;;;;;;;;10.20;91.80;;;9.54;76.07;100309.56;5072201;28;19928;-74
2023/04/07 02:04:17;;;;;;;;;;;10.20;92.40;;;9.54;75.66;100308.75;5072194;28;19935;-74
2023/04/07 02:06:48;;;;;;;;;;;10.20;92.00;;;9.55;75.63;100305.88;5072073;28;19981;-74
2023/04/07 02:09:19;;;;;;;;;;;10.20;92.00;;;9.55;75.55;100297.88;5071974;28;19967;-75
2023/04/07 02:11:46;;;;;;;;;;;10.20;92.00;;;9.55;76.24;100303.19;5072044;28;19989;-74
2023/04/07 02:14:14;;;;;;;;;;;10.20;92.40;;;9.56;76.15;100304.03;5072112;28;19975;-75
2023/04/07 02:16:57;;;;;;;;;;;10.20;92.20;;;9.57;76.44;100308.34;5072007;28;19929;-75
2023/04/07 02:19:26;;;;;;;;;;;10.20;92.70;;;9.57;75.92;100300.34;5090176;28;19970;-74
2023/04/07 02:21:54;;;;;;;;;;;10.20;92.10;;;9.59;75.78;100305.47;5071906;28;19927;-74
2023/04/07 02:24:21;;;;;;;;;;;10.20;91.90;;;9.60;75.53;100309.75;5090206;28;20017;-77
2023/04/07 02:26:48;;;;;;;;;;;10.20;92.00;;;9.60;75.89;100307.09;5071894;28;19928;-74
2023/04/07 02:29:15;;;;;;;;;;;10.20;92.00;;;9.61;75.95;100308.72;5071792;28;19924;-75
2023/04/07 02:31:43;;;;;;;;;;;10.30;92.00;;;9.62;75.99;100302.41;5089963;28;19928;-74
2023/04/07 02:34:10;;;;;;;;;;;10.30;92.60;;;9.62;75.88;100308.53;5071456;28;20362;-74
2023/04/07 02:36:40;;;;;;;;;;;10.30;92.20;;;9.62;75.86;100315.72;5071882;28;20399;-74
2023/04/07 02:39:07;;;;;;;;;;;10.30;92.20;;;9.64;76.48;100309.13;5071415;28;20023;-77
2023/04/07 02:41:34;;;;;;;;;;;10.30;93.00;;;9.64;76.82;100300.31;5089306;28;20040;-77
2023/04/07 02:44:01;;;;;;;;;;;10.30;93.20;;;9.64;77.50;100306.47;5071713;28;20034;-74
2023/04/07 02:46:28;;;;;;;;;;;10.30;93.70;;;9.63;77.43;100304.84;5071511;28;19928;-77
2023/04/07 02:48:55;;;;;;;;;;;10.30;93.60;;;9.64;76.87;100316.31;5071468;28;19935;-75
2023/04/07 02:51:22;;;;;;;;;;;10.30;93.10;;;9.64;77.10;100317.13;5089876;28;20018;-74
2023/04/07 02:53:51;;;;;;;;;;;10.30;93.20;;;9.65;77.56;100305.44;5071755;28;19958;-74
2023/04/07 02:56:18;;;;;;;;;;;10.30;93.60;;;9.67;78.00;100318.56;5089715;28;19935;-75
2023/04/07 02:58:45;;;;;;;;;;;10.30;94.20;;;9.67;78.70;100315.91;5071334;28;20019;-75
2023/04/07 03:01:12;;;;;;;;;;;10.30;94.70;;;9.66;79.43;100314.22;5071386;28;20007;-75
2023/04/07 03:03:41;;;;;;;;;;;10.30;95.10;;;9.65;79.56;100318.75;5071550;28;20387;-74
2023/04/07 03:06:18;;;;;;;;;;;10.30;95.00;;;9.66;79.90;100315.09;5071432;28;19985;-75
2023/04/07 03:09:02;;;;;;;;;;;10.30;95.50;;;9.63;80.28;100315.50;5071333;28;20064;-75
2023/04/07 03:11:29;;;;;;;;;;;10.30;95.40;;;9.65;79.85;100313.41;5071292;28;20412;-75
2023/04/07 03:13:58;;;;;;;;;;;10.30;95.20;;;9.66;79.49;100312.41;5071414;28;19935;-75
2023/04/07 03:16:27;;;;;;;;;;;10.30;94.80;;;9.67;79.71;100314.06;5071191;28;19978;-74
2023/04/07 03:19:12;;;;;;;;;;;10.30;95.40;;;9.69;80.08;100314.66;5071171;28;19934;-75
2023/04/07 03:21:43;;;;;;;;;;;10.30;95.50;;;9.69;79.31;100319.16;5071085;28;19928;-75
2023/04/07 03:24:12;;;;;;;;;;;10.30;94.60;;;9.70;79.58;100315.47;5071292;28;20122;-75
2023/04/07 03:26:39;;;;;;;;;;;10.30;95.40;;;9.70;79.30;100318.13;5071116;28;20400;-75
2023/04/07 03:29:13;;;;;;;;;;;10.30;94.80;;;9.71;79.51;100319.75;5071157;28;19928;-74
2023/04/07 03:31:42;;;;;;;;;;;10.30;95.10;;;9.72;79.67;100319.56;5071165;28;20307;-76
2023/04/07 03:34:10;;;;;;;;;;;10.30;95.30;;;9.72;80.70;100322.22;5071224;28;19981;-75
2023/04/07 03:36:37;;;;;;;;;;;10.30;96.00;;;9.72;80.87;100322.22;5071417;28;20296;-75
2023/04/07 03:39:05;;;;;;;;;;;10.30;96.20;;;9.72;80.68;100314.25;5070982;28;19928;-74
2023/04/07 03:41:34;;;;;;;;;;;10.30;95.50;;;9.71;80.72;100320.59;5089262;28;19928;-78
2023/04/07 03:44:02;;;;;;;;;;;10.30;95.80;;;9.71;80.61;100325.91;5071162;28;19928;-77
2023/04/07 03:46:31;;;;;;;;;;;10.30;95.70;;;9.71;81.31;100327.75;5070934;28;20339;-73
2023/04/07 03:48:58;;;;;;;;;;;10.40;96.00;;;9.70;80.34;100318.94;5070832;28;19928;-77
2023/04/07 03:51:26;;;;;;;;;;;10.40;95.30;;;9.73;80.32;100323.84;5071012;28;20028;-75
2023/04/07 03:53:55;;;;;;;;;;;10.40;95.60;;;9.73;80.02;100323.84;5073472;28;20310;-75
2023/04/07 03:56:30;;;;;;;;;;;10.40;95.20;;;9.74;80.97;100322.81;5074566;28;19935;-75
2023/04/07 03:59:00;;;;;;;;;;;10.40;96.10;;;9.72;80.96;100330.22;5073921;28;19943;-74
2023/04/07 04:01:31;;;;;;;;;;;10.40;95.70;;;9.73;80.41;100331.84;5074543;28;19990;-76
2023/04/07 04:04:05;;;;;;;;;;;10.40;95.40;;;9.73;80.64;100321.19;5074632;28;19941;-74
2023/04/07 04:06:32;;;;;;;;;;;10.40;95.60;;;9.71;80.95;100331.25;5074387;28;20038;-77
2023/04/07 04:09:20;;;;;;;;;;;10.40;96.00;;;9.71;81.27;100327.75;5081345;28;19928;-75
2023/04/07 04:11:49;;;;;;;;;;;10.40;96.00;;;9.72;81.59;100329.41;5074592;28;20013;-76
2023/04/07 04:14:18;;;;;;;;;;;10.30;96.50;;;9.71;81.41;100336.56;5074417;28;20050;-75
2023/04/07 04:16:52;;;;;;;;;;;10.30;96.30;;;9.72;81.30;100335.53;5074115;28;20387;-75
2023/04/07 04:19:36;;;;;;;;;;;10.30;96.30;;;9.73;81.15;100344.34;5073964;28;20046;-75
2023/04/07 04:22:12;;;;;;;;;;;10.30;96.10;;;9.71;81.28;100346.38;5074184;28;19936;-77
2023/04/07 04:24:48;;;;;;;;;;;10.30;96.20;;;9.71;80.94;100349.88;5074100;28;19935;-76
2023/04/07 04:27:15;;;;;;;;;;;10.30;95.90;;;9.73;81.04;100344.34;5074102;28;19935;-74
2023/04/07 04:29:47;;;;;;;;;;;10.40;96.00;;;9.72;80.79;100343.53;5074059;28;19928;-75
2023/04/07 04:32:17;;;;;;;;;;;10.40;95.70;;;9.74;80.57;100353.97;5074063;28;19931;-77
2023/04/07 04:34:44;;;;;;;;;;;10.40;95.60;;;9.74;80.15;100346.78;5073533;28;19935;-73
2023/04/07 04:37:12;;;;;;;;;;;10.40;95.20;;;9.75;80.24;100350.28;5073947;28;19928;-74
2023/04/07 04:39:43;;;;;;;;;;;10.30;95.30;;;9.76;80.44;100355.41;5073840;28;19928;-75
2023/04/07 04:42:12;;;;;;;;;;;10.40;95.60;;;9.76;80.69;100350.09;5073972;28;20383;-73
2023/04/07 04:44:40;;;;;;;;;;;10.40;95.90;;;9.74;80.83;100354.78;5073710;28;20485;-74
2023/04/07 04:47:09;;;;;;;;;;;10.40;95.70;;;9.75;80.35;100361.75;5073728;28;19973;-74
2023/04/07 04:49:40;;;;;;;;;;;10.40;95.30;;;9.77;80.33;100367.69;5073353;28;20226;-75
2023/04/07 04:52:07;;;;;;;;;;;10.40;95.60;;;9.76;80.64;100365.22;5073541;28;19935;-74
2023/04/07 04:54:40;;;;;;;;;;;10.40;95.80;;;9.76;80.82;100368.72;5073606;28;19951;-74
2023/04/07 04:57:08;;;;;;;;;;;10.40;95.60;;;9.76;80.67;100362.56;5073368;28;20419;-78
2023/04/07 04:59:38;;;;;;;;;;;10.40;95.60;;;9.76;80.15;100367.88;5073138;28;19974;-75
2023/04/07 05:02:06;;;;;;;;;;;10.40;95.30;;;9.76;79.69;100368.72;5073355;28;19928;-76
2023/04/07 05:04:34;;;;;;;;;;;10.40;95.10;;;9.78;79.83;100373.84;5072606;28;19928;-76
2023/04/07 05:07:33;;;;;;;;;;;10.40;95.00;;;9.78;79.46;100385.31;5078728;28;20447;-76
2023/04/07 05:10:01;;;;;;;;;;;10.40;94.80;;;9.78;79.45;100379.97;5073247;28;20022;-75
2023/04/07 05:12:31;;;;;;;;;;;10.40;94.90;;;9.78;80.15;100387.97;5073249;28;20026;-74
2023/04/07 05:15:01;;;;;;;;;;;10.40;95.40;;;9.79;80.15;100375.47;5073088;28;19935;-77
2023/04/07 05:17:28;;;;;;;;;;;10.40;95.70;;;9.76;81.03;100386.53;5072896;28;20450;-75
2023/04/07 05:19:58;;;;;;;;;;;10.40;96.00;;;9.76;81.06;100387.38;5072817;28;19982;-75
2023/04/07 05:22:37;;;;;;;;;;;10.40;96.00;;;9.74;80.51;100388.59;5073001;28;20428;-74
2023/04/07 05:25:07;;;;;;;;;;;10.40;95.60;;;9.74;80.04;100384.06;5072766;28;19935;-75
2023/04/07 05:27:35;;;;;;;;;;;10.40;95.20;;;9.73;79.90;100390.44;5072739;28;19939;-75
2023/04/07 05:30:09;;;;;;;;;;;10.40;95.20;;;9.73;80.51;100392.28;5072838;28;20316;-75
2023/04/07 05:32:36;;;;;;;;;;;10.40;95.80;;;9.71;80.65;100394.31;5072837;28;19928;-75
2023/04/07 05:35:12;;;;;;;;;;;10.30;95.80;;;9.69;80.93;100394.53;5072704;28;19931;-73
2023/04/07 05:37:45;;;;;;;;;;;10.30;96.00;;;9.65;81.03;100390.63;5072481;28;20019;-73
2023/04/07 05:40:12;;;;;;;;;;;10.30;95.90;;;9.65;81.03;100403.94;5072539;28;19928;-76
2023/04/07 05:42:40;;;;;;;;;;;10.30;96.00;;;9.66;80.75;100402.09;5072687;28;19928;-75
2023/04/07 05:45:10;;;;;;;;;;;10.30;95.80;;;9.64;81.00;100401.50;5072500;28;20354;-75
2023/04/07 05:47:40;;;;;;;;;;;10.30;96.00;;;9.65;80.44;100409.28;5072428;28;19963;-78
2023/04/07 05:50:12;;;;;;;;;;;10.30;95.40;;;9.67;80.10;100406.44;5072353;28;19928;-74
2023/04/07 05:52:42;;;;;;;;;;;10.30;95.30;;;9.68;80.09;100408.88;5072141;28;20497;-75
2023/04/07 05:55:20;;;;;;;;;;;10.30;95.40;;;9.68;80.08;100414.19;5072278;28;19928;-74
2023/04/07 05:57:48;;;;;;;;;;;10.30;95.40;;;9.67;79.80;100417.91;5072057;28;19928;-76
2023/04/07 06:00:18;;;;;;;;;;;10.30;95.10;;;9.68;79.89;100419.53;5072197;28;19997;-74
2023/04/07 06:02:52;;;;;;;;;;;10.30;95.20;;;9.70;79.84;100428.13;5072265;28;19928;-75
2023/04/07 06:05:21;;;;;;;;;;;10.30;95.10;;;9.69;79.71;100426.50;5071665;28;19928;-74
2023/04/07 06:07:53;;;;;;;;;;;10.30;95.20;;;9.70;79.47;100428.13;5071922;28;19928;-74
2023/04/07 06:10:20;;;;;;;;;;;10.30;94.80;;;9.70;79.43;100433.44;5072063;28;19930;-76
2023/04/07 06:12:47;;;;;;;;;;;10.30;94.80;;;9.71;79.21;100429.78;5072074;28;19960;-74
2023/04/07 06:15:15;;;;;;;;;;;10.40;94.70;;;9.72;79.11;100428.75;5071933;28;19928;-76
2023/04/07 06:17:42;;;;;;;;;;;10.40;94.90;;;9.73;79.16;100427.72;5070960;28;19935;-74
2023/04/07 06:20:10;;;;;;;;;;;10.40;94.70;;;9.72;79.46;100431.41;5071786;28;19932;-75
2023/04/07 06:22:38;;;;;;;;;;;10.40;95.00;;;9.72;79.29;100439.41;5090395;28;20527;-75
2023/04/07 06:25:08;;;;;;;;;;;10.40;94.80;;;9.73;79.53;100441.03;5071949;28;19928;-74
2023/04/07 06:27:35;;;;;;;;;;;10.40;95.00;;;9.74;79.59;100439.19;5071783;28;20380;-74
2023/04/07 06:30:02;;;;;;;;;;;10.40;95.00;;;9.75;79.35;100443.47;5089832;28;19967;-75
2023/04/07 06:32:30;;;;;;;;;;;10.40;94.80;;;9.76;79.42;100437.97;5071744;28;19966;-76
2023/04/07 06:34:57;;;;;;;;;;;10.40;94.90;;;9.77;79.68;100446.78;5071696;28;19935;-76
2023/04/07 06:37:25;;;;;;;;;;;10.40;95.20;;;9.75;80.15;100448.81;5071755;28;19970;-76
2023/04/07 06:39:53;;;;;;;;;;;10.40;95.30;;;9.76;80.06;100442.44;5071643;28;19932;-76
2023/04/07 06:42:20;;;;;;;;;;;10.40;95.50;;;9.77;80.67;100452.09;5090052;28;19943;-75
2023/04/07 06:44:59;;;;;;;;;;;10.40;95.80;;;9.75;80.34;100451.47;5071600;28;19928;-76
2023/04/07 06:47:27;;;;;;;;;;;10.40;95.50;;;9.76;80.64;100456.63;5089899;28;19975;-74
2023/04/07 06:49:54;;;;;;;;;;;10.40;95.80;;;9.75;80.37;100452.28;5089889;28;20001;-76
2023/04/07 06:52:21;;;;;;;;;;;10.40;95.40;;;9.76;79.95;100450.44;5089953;28;19928;-75
2023/04/07 06:54:48;;;;;;;;;;;10.40;95.30;;;9.77;80.00;100452.91;5089967;28;20531;-75
2023/04/07 06:57:16;;;;;;;;;;;10.40;95.20;;;9.80;80.16;100459.66;5089922;28;19967;-76
2023/04/07 06:59:43;;;;;;;;;;;10.40;95.70;;;9.80;80.47;100464.97;5089658;28;20023;-75
2023/04/07 07:02:10;;;;;;;;;;;10.40;96.00;;;9.79;80.23;100458.84;5089748;28;19928;-77
2023/04/07 07:04:37;;;;;;;;;;;10.40;95.40;;;9.79;80.16;100458.84;5089604;28;20459;-74
2023/04/07 07:07:04;;;;;;;;;;;10.40;95.50;;;9.74;80.63;100466.63;5089745;28;20013;-75
2023/04/07 07:09:31;;;;;;;;;;;10.40;95.70;;;9.73;80.91;100469.50;5089481;28;19924;-75
2023/04/07 07:12:00;;;;;;;;;;;10.40;95.90;;;9.72;80.63;100474.03;5071441;28;19928;-76
2023/04/07 07:14:29;;;;;;;;;;;10.40;95.60;;;9.74;79.96;100465.81;5089721;28;19955;-75
2023/04/07 07:16:56;;;;;;;;;;;10.40;95.30;;;9.74;80.17;100477.28;5089718;28;19982;-75
2023/04/07 07:19:23;;;;;;;;;;;10.40;95.50;;;9.75;80.39;100483.44;5089469;28;19959;-75
2023/04/07 07:21:50;;;;;;;;;;;10.40;95.50;;;9.74;80.60;100482.63;5071178;28;20027;-75
2023/04/07 07:24:17;;;;;;;;;;;10.40;95.70;;;9.75;80.36;100480.75;5089642;28;19934;-75
2023/04/07 07:26:45;;;;;;;;;;;10.40;95.60;;;9.76;80.43;100485.91;5089487;28;19986;-76
2023/04/07 07:29:12;;;;;;;;;;;10.40;95.70;;;9.78;80.64;100489.16;5092806;28;19931;-77
2023/04/07 07:31:40;;;;;;;;;;;10.40;95.70;;;9.78;80.88;100488.34;5093411;28;20047;-74
2023/04/07 07:34:07;;;;;;;;;;;10.40;95.90;;;9.75;80.67;100488.75;5093453;28;20315;-74
2023/04/07 07:36:34;;;;;;;;;;;10.40;95.70;;;9.76;80.66;100496.56;5075072;28;19978;-75
2023/04/07 07:39:01;;;;;;;;;;;10.40;95.90;;;9.76;81.04;100493.91;5093169;28;20383;-75
2023/04/07 07:41:28;;;;;;;;;;;10.40;96.00;;;9.77;80.86;100497.38;5093350;28;19924;-75
2023/04/07 07:43:55;;;;;;;;;;;10.40;95.90;;;9.77;80.90;100498.19;5093354;28;20034;-75
2023/04/07 07:46:23;;;;;;;;;;;10.40;95.90;;;9.79;80.96;100496.13;5093084;28;19963;-75
2023/04/07 07:48:51;;;;;;;;;;;10.40;96.00;;;9.81;80.64;100503.94;5093124;28;20445;-74
2023/04/07 07:51:18;;;;;;;;;;;10.50;95.80;;;9.83;80.28;100498.41;5092594;28;20446;-75
2023/04/07 07:53:45;;;;;;;;;;;10.50;95.50;;;9.85;80.13;100505.13;5093104;28;20017;-76
2023/04/07 07:56:13;;;;;;;;;;;10.50;95.60;;;9.88;80.48;100503.94;5092826;28;20025;-75
2023/04/07 07:58:40;;;;;;;;;;;10.50;95.80;;;9.87;81.01;100500.44;5074452;28;20039;-75
2023/04/07 08:01:07;;;;;;;;;;;10.50;96.30;;;9.88;81.23;100509.25;5092386;28;19924;-76
2023/04/07 08:03:34;;;;;;;;;;;10.50;96.00;;;9.90;81.38;100510.66;5074589;28;20023;-76
2023/04/07 08:06:03;;;;;;;;;;;10.50;96.30;;;9.91;81.61;100508.84;5074582;28;20302;-76
2023/04/07 08:08:30;;;;;;;;;;;10.50;96.50;;;9.92;81.10;100521.97;5092820;28;19928;-74
2023/04/07 08:10:57;;;;;;;;;;;10.60;96.10;;;9.91;81.00;100517.66;5092783;28;19936;-75
2023/04/07 08:13:24;;;;;;;;;;;10.60;95.80;;;9.92;81.27;100527.28;5092733;28;19934;-74
2023/04/07 08:15:51;;;;;;;;;;;10.60;96.20;;;9.92;81.32;100527.28;5092460;28;20380;-75
2023/04/07 08:18:18;;;;;;;;;;;10.60;96.20;;;9.92;81.16;100527.28;5092380;28;19928;-77
2023/04/07 08:20:45;;;;;;;;;;;10.60;96.00;;;9.94;81.29;100532.41;5092240;28;19959;-74
2023/04/07 08:23:13;;;;;;;;;;;10.60;96.30;;;9.94;81.13;100535.06;5092430;28;19931;-76
2023/04/07 08:25:40;;;;;;;;;;;10.60;96.00;;;9.96;81.40;100533.03;5092440;28;19934;-74
2023/04/07 08:28:07;;;;;;;;;;;10.60;96.50;;;9.93;82.16;100539.56;5092340;28;19967;-74
2023/04/07 08:30:34;;;;;;;;;;;10.60;96.90;;;9.93;82.59;100533.44;5092355;28;19928;-75
2023/04/07 08:33:01;;;;;;;;;;;10.60;97.20;;;9.91;82.85;100538.97;5092361;28;19928;-75
2023/04/07 08:35:28;;;;;;;;;;;10.60;97.00;;;9.93;82.32;100544.91;5092265;28;20025;-75
2023/04/07 08:37:55;;;;;;;;;;;10.60;96.80;;;9.95;82.61;100542.84;5091947;28;19967;-75
2023/04/07 08:40:24;;;;;;;;;;;10.60;97.00;;;9.95;82.25;100542.84;5091251;28;20585;-76
2023/04/07 08:42:52;;;;;;;;;;;10.60;96.80;;;9.96;82.11;100541.03;5092186;28;19960;-76
2023/04/07 08:45:19;;;;;;;;;;;10.60;96.60;;;9.95;81.87;100544.69;5091983;28;19928;-76
2023/04/07 08:47:47;;;;;;;;;;;10.60;96.40;;;9.95;81.55;100550.84;5091858;28;19928;-75
2023/04/07 08:50:16;;;;;;;;;;;10.60;96.20;;;9.99;82.15;100549.41;5091959;28;19931;-75
2023/04/07 08:52:46;;;;;;;;;;;10.60;96.90;;;9.99;82.19;100553.91;5091919;28;20014;-78
2023/04/07 08:55:13;;;;;;;;;;;10.60;96.80;;;10.01;82.53;100549.22;5091732;28;19927;-75
2023/04/07 08:57:42;;;;;;;;;;;10.60;97.10;;;10.01;82.61;100551.88;5091650;28;19927;-75
2023/04/07 09:00:10;;;;;;;;;;;10.70;97.20;;;10.03;81.98;100560.47;5091575;28;19964;-76
2023/04/07 09:02:38;;;;;;;;;;;10.70;96.80;;;10.04;82.54;100562.13;5091727;28;20411;-75
2023/04/07 09:05:07;;;;;;;;;;;10.70;97.20;;;10.04;82.30;100570.91;5073230;28;19935;-74
2023/04/07 09:07:35;;;;;;;;;;;10.70;96.60;;;10.06;82.03;100562.75;5091491;28;19931;-75
2023/04/07 09:10:03;;;;;;;;;;;10.70;96.70;;;10.07;81.64;100569.72;5091617;28;20019;-75
2023/04/07 09:12:31;;;;;;;;;;;10.80;96.40;;;10.07;81.32;100567.03;5073376;28;19971;-75
2023/04/07 09:15:00;;;;;;;;;;;10.70;96.00;;;10.08;80.89;100563.34;5091441;28;19935;-76
2023/04/07 09:17:27;;;;;;;;;;;10.80;95.90;;;10.10;80.46;100566.63;5091328;28;19974;-75
2023/04/07 09:19:56;;;;;;;;;;;10.80;95.50;;;10.12;80.35;100572.56;5091184;28;19964;-74
2023/04/07 09:22:37;;;;;;;;;;;10.80;95.40;;;10.14;80.05;100578.50;5091430;28;19934;-74
2023/04/07 09:25:13;;;;;;;;;;;10.80;95.20;;;10.16;80.18;100579.13;5091139;28;19924;-75
2023/04/07 09:27:40;;;;;;;;;;;10.80;95.60;;;10.13;81.18;100566.22;5091064;28;19959;-75
2023/04/07 09:30:14;;;;;;;;;;;10.80;96.10;;;10.13;81.16;100576.88;5091090;28;19928;-75
2023/04/07 09:32:41;;;;;;;;;;;10.80;96.10;;;10.10;81.66;100576.47;5091108;28;19928;-75
2023/04/07 09:35:09;;;;;;;;;;;10.80;96.40;;;10.10;81.97;100579.94;5090967;28;19950;-77
2023/04/07 09:37:36;;;;;;;;;;;10.80;96.60;;;10.05;82.22;100574.41;5091015;28;20034;-77
2023/04/07 09:40:03;;;;;;;;;;;10.70;97.00;;;10.02;82.58;100578.31;5090808;28;19935;-77
2023/04/07 09:42:34;;;;;;;;;;;10.70;97.10;;;10.02;82.56;100577.50;5090970;28;19961;-74
2023/04/07 09:45:01;;;;;;;;;;;10.70;97.20;;;10.02;82.71;100578.31;5090625;28;19927;-75
2023/04/07 09:47:32;;;;;;;;;;;10.70;97.10;;;10.04;82.32;100578.91;5090631;28;20035;-74
2023/04/07 09:50:05;;;;;;;;;;;10.70;96.80;;;10.06;82.14;100571.56;5090802;28;19932;-74
2023/04/07 09:52:51;;;;;;;;;;;10.70;96.60;;;10.07;82.07;100583.03;5090889;28;20364;-78
2023/04/07 09:55:20;;;;;;;;;;;10.80;96.60;;;10.07;81.95;100589.19;5090673;28;19939;-75
2023/04/07 09:57:48;;;;;;;;;;;10.80;96.40;;;10.07;81.54;100585.69;5072238;28;20015;-74
2023/04/07 10:00:16;;;;;;;;;;;10.80;96.20;;;10.09;81.56;100580.97;5090545;28;19928;-74
2023/04/07 10:02:44;;;;;;;;;;;10.80;96.40;;;10.11;82.23;100586.13;5090611;28;19928;-73
2023/04/07 10:05:11;;;;;;;;;;;10.80;96.80;;;10.09;82.00;100586.28;5090325;28;20558;-75
2023/04/07 10:07:39;;;;;;;;;;;10.80;96.50;;;10.12;82.48;100593.06;5089973;28;19959;-75
2023/04/07 10:10:07;;;;;;;;;;;10.80;97.00;;;10.13;83.04;100595.53;5090442;28;20023;-76
2023/04/07 10:12:35;;;;;;;;;;;10.80;97.50;;;10.13;83.19;100584.88;5090440;28;19928;-74
2023/04/07 10:15:02;;;;;;;;;;;10.80;97.50;;;10.15;82.72;100595.31;5090313;28;20031;-74
2023/04/07 10:17:30;;;;;;;;;;;10.90;97.00;;;10.18;82.28;100594.91;5090291;28;19928;-77
2023/04/07 10:19:59;;;;;;;;;;;10.90;96.90;;;10.21;82.17;100594.50;5090085;28;19928;-74
2023/04/07 10:22:27;;;;;;;;;;;10.90;96.80;;;10.22;82.10;100594.31;5090407;28;19977;-74
2023/04/07 10:24:58;;;;;;;;;;;10.90;96.80;;;10.23;82.70;100605.78;5090371;28;19981;-74
2023/04/07 10:27:31;;;;;;;;;;;11.00;97.20;;;10.19;83.07;100608.03;5090079;28;20465;-76
2023/04/07 10:29:58;;;;;;;;;;;10.80;97.50;;;10.15;83.20;100606.81;5090164;28;19981;-77
2023/04/07 10:32:26;;;;;;;;;;;10.80;97.30;;;10.15;83.32;100609.50;5090258;28;19928;-74
2023/04/07 10:34:58;;;;;;;;;;;10.80;97.70;;;10.13;83.10;100605.38;5089716;28;19928;-75
2023/04/07 10:37:27;;;;;;;;;;;10.80;97.40;;;10.13;83.26;100614.19;5090001;28;20023;-74
2023/04/07 10:40:29;;;;;;;;;;;10.80;97.70;;;10.14;83.46;100610.50;5089873;28;20047;-74
2023/04/07 10:42:56;;;;;;;;;;;10.80;97.80;;;10.12;83.93;100615.22;5090009;28;20014;-75
2023/04/07 10:45:52;;;;;;;;;;;10.80;98.30;;;10.08;84.40;100616.63;5089994;28;20399;-75
2023/04/07 10:48:20;;;;;;;;;;;10.70;98.30;;;10.07;84.08;100617.66;5089816;28;20023;-77
2023/04/07 10:51:17;;;;;;;;;;;10.80;97.90;;;10.10;83.45;100619.09;5089986;28;19934;-76
2023/04/07 10:54:21;;;;;;;;;;;10.80;97.50;;;10.13;83.66;100619.50;5089995;28;20566;-75
2023/04/07 10:57:09;;;;;;;;;;;10.90;98.00;;;10.16;83.89;100628.97;5089769;28;19928;-75
2023/04/07 10:59:37;;;;;;;;;;;10.80;98.10;;;10.17;83.52;100619.94;5089633;28;19932;-74
2023/04/07 11:02:35;;;;;;;;;;;10.80;97.60;;;10.15;83.04;100625.47;5071765;28;20319;-75
2023/04/07 11:05:02;;;;;;;;;;;10.80;97.40;;;10.18;82.96;100621.56;5093875;28;20277;-75
2023/04/07 11:07:54;;;;;;;;;;;10.90;97.40;;;10.21;83.34;100626.50;5093765;28;20009;-76
2023/04/07 11:10:22;;;;;;;;;;;10.90;97.80;;;10.19;83.76;100626.69;5093990;28;19924;-75
2023/04/07 11:13:09;;;;;;;;;;;10.90;98.00;;;10.20;83.84;100624.84;5093829;28;19964;-75
2023/04/07 11:15:36;;;;;;;;;;;10.80;97.70;;;10.20;83.35;100628.34;5093725;28;19924;-77
2023/04/07 11:18:11;;;;;;;;;;;10.90;97.70;;;10.22;83.51;100623.63;5093698;28;20001;-74
2023/04/07 11:20:43;;;;;;;;;;;10.90;97.70;;;10.24;83.45;100631.44;5093512;28;19930;-75
2023/04/07 11:23:11;;;;;;;;;;;10.90;97.70;;;10.25;83.16;100633.91;5093762;28;19978;-75
2023/04/07 11:25:41;;;;;;;;;;;10.90;97.30;;;10.24;83.59;100634.91;5093631;28;19928;-76
2023/04/07 11:28:10;;;;;;;;;;;10.90;97.70;;;10.26;83.35;100637.41;5093569;28;20036;-77